Time;durP1;ratioP1;P1;durP2;ratioP2;P2;SDS_P1;SDS_P2;PMS_P1;PMS_P2;Temp;Humidity;BMP_temperature;BMP_pressure;BME280_temperature;BME280_humidity;BME280_pressure;Samples;Min_cycle;Max_cycle;Signal;HPM_P1;HPM_P2
2022/10/18 00:01:05;;;;;;;15.65;9.90;;;18.80;99.90;;;;;;5052349;28;20375;-76
2022/10/18 00:03:31;;;;;;;14.93;9.40;;;18.80;99.90;;;;;;5067850;28;20055;-75
2022/10/18 00:05:57;;;;;;;16.55;9.80;;;18.80;99.90;;;;;;5052185;28;20268;-76
2022/10/18 00:08:24;;;;;;;17.23;10.60;;;18.80;99.90;;;;;;5068223;28;20028;-77
2022/10/18 00:10:50;;;;;;;21.30;9.47;;;18.80;99.90;;;;;;5052186;28;20039;-76
2022/10/18 00:13:16;;;;;;;17.75;9.52;;;18.80;99.90;;;;;;5067538;28;20267;-77
2022/10/18 00:16:10;;;;;;;17.70;9.30;;;18.80;99.90;;;;;;5051942;28;20577;-76
2022/10/18 00:18:36;;;;;;;13.38;9.20;;;18.80;99.90;;;;;;5064962;28;20076;-75
2022/10/18 00:21:05;;;;;;;13.25;9.45;;;18.80;99.90;;;;;;5052128;28;20049;-75
2022/10/18 00:23:32;;;;;;;19.52;10.18;;;18.70;99.90;;;;;;5052127;28;20032;-75
2022/10/18 00:26:11;;;;;;;14.90;8.93;;;18.70;99.90;;;;;;5052400;28;20036;-75
2022/10/18 00:28:38;;;;;;;15.32;8.55;;;18.70;99.90;;;;;;5051675;28;20037;-77
2022/10/18 00:31:11;;;;;;;15.27;9.57;;;18.70;99.90;;;;;;5067262;28;20029;-75
2022/10/18 00:33:36;;;;;;;17.05;8.63;;;18.70;99.90;;;;;;5051577;28;20044;-76
2022/10/18 00:36:02;;;;;;;15.93;9.85;;;18.60;99.90;;;;;;5052030;28;20391;-76
2022/10/18 00:38:28;;;;;;;20.40;9.82;;;18.60;99.90;;;;;;5051367;28;20021;-76
2022/10/18 00:40:53;;;;;;;17.52;9.27;;;18.60;99.90;;;;;;5067384;28;20032;-75
2022/10/18 00:43:19;;;;;;;22.73;9.13;;;18.60;99.90;;;;;;5051432;28;20463;-76
2022/10/18 00:45:45;;;;;;;14.50;9.93;;;18.60;99.90;;;;;;5051754;28;20060;-77
2022/10/18 00:48:13;;;;;;;14.32;9.15;;;18.60;99.90;;;;;;5051489;28;20292;-75
2022/10/18 00:50:39;;;;;;;21.02;9.30;;;18.60;99.90;;;;;;5049755;28;20075;-75
2022/10/18 00:53:14;;;;;;;15.98;8.85;;;18.50;99.90;;;;;;5051641;28;20033;-75
2022/10/18 00:55:39;;;;;;;14.98;9.20;;;18.60;99.90;;;;;;5051223;28;20128;-75
2022/10/18 00:58:06;;;;;;;14.75;8.80;;;18.60;99.90;;;;;;5051170;28;20433;-77
2022/10/18 01:00:37;;;;;;;22.15;9.35;;;18.60;99.90;;;;;;5051035;28;20037;-76
2022/10/18 01:03:04;;;;;;;17.13;10.55;;;18.50;99.90;;;;;;5050981;28;20370;-76
2022/10/18 01:05:30;;;;;;;15.07;11.18;;;18.40;99.90;;;;;;5051378;28;20035;-75
2022/10/18 01:08:20;;;;;;;19.20;11.07;;;18.40;99.90;;;;;;5051474;28;20111;-76
2022/10/18 01:10:50;;;;;;;16.85;10.82;;;18.40;99.90;;;;;;5051274;28;20029;-75
2022/10/18 01:13:25;;;;;;;20.45;11.18;;;18.40;99.90;;;;;;5051062;28;20037;-76
2022/10/18 01:16:23;;;;;;;20.42;11.55;;;18.40;99.90;;;;;;5051069;28;20044;-73
2022/10/18 01:18:57;;;;;;;18.63;10.85;;;18.30;99.90;;;;;;4997784;28;20029;-73
2022/10/18 01:21:37;;;;;;;20.77;10.35;;;18.30;99.90;;;;;;5051065;28;20044;-76
2022/10/18 01:24:11;;;;;;;21.75;9.38;;;18.30;99.90;;;;;;5050732;28;20462;-75
2022/10/18 01:26:37;;;;;;;14.13;8.73;;;18.40;99.90;;;;;;5050709;28;20037;-74
2022/10/18 01:29:29;;;;;;;13.70;8.25;;;18.40;99.90;;;;;;5066785;28;20108;-75
2022/10/18 01:32:11;;;;;;;18.58;8.63;;;18.40;99.90;;;;;;5050647;28;20064;-75
2022/10/18 01:34:38;;;;;;;17.30;8.90;;;18.50;99.90;;;;;;5050516;28;20040;-75
2022/10/18 01:37:10;;;;;;;12.00;8.77;;;18.40;99.90;;;;;;5069007;28;20073;-74
2022/10/18 01:39:40;;;;;;;15.82;7.90;;;18.40;99.90;;;;;;5070535;28;20323;-74
2022/10/18 01:42:09;;;;;;;13.77;8.02;;;18.40;99.90;;;;;;5069388;28;20028;-76
2022/10/18 01:44:37;;;;;;;16.17;9.13;;;18.40;99.90;;;;;;5070444;28;20074;-75
2022/10/18 01:47:04;;;;;;;13.45;8.13;;;18.40;99.90;;;;;;5070941;28;20025;-76
2022/10/18 01:49:34;;;;;;;16.02;8.55;;;18.40;99.90;;;;;;5070435;28;20536;-76
2022/10/18 01:52:00;;;;;;;17.05;8.10;;;18.40;99.90;;;;;;5069274;28;20040;-75
2022/10/18 01:54:33;;;;;;;11.18;7.22;;;18.40;99.90;;;;;;5070497;28;20033;-75
2022/10/18 01:57:05;;;;;;;14.13;7.97;;;18.30;99.90;;;;;;5070267;28;20439;-75
2022/10/18 01:59:55;;;;;;;11.02;7.28;;;18.30;99.90;;;;;;5070216;28;20044;-76
2022/10/18 02:02:29;;;;;;;15.48;8.18;;;18.30;99.90;;;;;;5073070;28;20320;-75
2022/10/18 02:05:11;;;;;;;12.15;8.48;;;18.20;99.90;;;;;;5074431;28;20040;-76
2022/10/18 02:07:49;;;;;;;12.48;7.75;;;18.20;99.90;;;;;;5074412;28;20056;-76
2022/10/18 02:10:28;;;;;;;19.05;9.00;;;18.20;99.90;;;;;;5074489;28;20048;-77
2022/10/18 02:12:55;;;;;;;11.95;8.25;;;18.20;99.90;;;;;;5073171;28;20375;-75
2022/10/18 02:15:26;;;;;;;17.95;9.63;;;18.20;99.90;;;;;;5074411;28;20033;-76
2022/10/18 02:17:54;;;;;;;15.15;9.00;;;18.20;99.90;;;;;;5074242;28;20032;-76
2022/10/18 02:20:22;;;;;;;19.88;9.27;;;18.10;99.90;;;;;;5074708;28;20024;-76
2022/10/18 02:22:49;;;;;;;;;;;18.20;99.90;;;;;;5074677;28;20043;-76
2022/10/18 02:25:21;;;;;;;20.77;7.95;;;18.10;99.90;;;;;;5073127;28;19908;-75
2022/10/18 02:27:47;;;;;;;17.23;8.57;;;18.10;99.90;;;;;;5074113;28;20052;-75
2022/10/18 02:30:14;;;;;;;22.55;8.70;;;18.00;99.90;;;;;;5073986;28;20070;-77
2022/10/18 02:33:10;;;;;;;16.27;8.70;;;18.00;99.90;;;;;;5074101;28;20044;-74
2022/10/18 02:35:43;;;;;;;16.77;8.90;;;18.00;99.90;;;;;;5074310;28;20098;-74
2022/10/18 02:38:11;;;;;;;13.82;9.18;;;18.00;99.90;;;;;;5074534;28;20044;-74
2022/10/18 02:40:37;;;;;;;19.45;9.65;;;18.00;99.90;;;;;;5072699;28;20290;-73
2022/10/18 02:43:05;;;;;;;26.45;10.27;;;18.00;99.90;;;;;;5073967;28;20040;-74
2022/10/18 02:45:31;;;;;;;20.33;9.50;;;18.00;99.90;;;;;;5073821;28;20033;-74
2022/10/18 02:47:57;;;;;;;17.35;9.65;;;18.00;99.90;;;;;;5073614;28;20054;-75
2022/10/18 02:50:25;;;;;;;15.60;9.95;;;17.90;99.90;;;;;;5074138;28;20466;-75
2022/10/18 02:52:51;;;;;;;14.85;9.50;;;17.90;99.90;;;;;;5073692;28;20033;-76
2022/10/18 02:55:17;;;;;;;21.08;10.70;;;17.90;99.90;;;;;;5073530;28;20043;-76
2022/10/18 02:57:43;;;;;;;20.85;9.85;;;17.90;99.90;;;;;;5073526;28;20037;-76
2022/10/18 03:00:09;;;;;;;17.40;9.68;;;17.90;99.90;;;;;;5073573;28;20051;-76
2022/10/18 03:02:35;;;;;;;17.45;10.15;;;17.80;99.90;;;;;;5073870;28;20028;-75
2022/10/18 03:05:01;;;;;;;14.32;9.70;;;17.90;99.90;;;;;;5072703;28;20036;-75
2022/10/18 03:07:26;;;;;;;16.63;10.50;;;17.80;99.90;;;;;;5072276;28;20042;-74
2022/10/18 03:09:52;;;;;;;26.00;10.02;;;17.80;99.90;;;;;;5072388;28;20035;-74
2022/10/18 03:12:17;;;;;;;17.15;10.23;;;17.80;99.90;;;;;;5071871;28;20051;-75
2022/10/18 03:14:43;;;;;;;20.13;10.77;;;17.80;99.90;;;;;;5073533;28;20025;-76
2022/10/18 03:17:09;;;;;;;19.73;11.48;;;17.80;99.90;;;;;;5072236;28;20020;-74
2022/10/18 03:19:35;;;;;;;17.85;11.45;;;17.80;99.90;;;;;;5073005;28;20029;-75
2022/10/18 03:22:00;;;;;;;18.35;10.98;;;17.80;99.90;;;;;;5073021;28;20112;-75
2022/10/18 03:24:26;;;;;;;21.23;12.10;;;17.80;99.90;;;;;;5071912;28;20033;-75
2022/10/18 03:26:51;;;;;;;25.50;13.02;;;17.80;99.90;;;;;;5072881;28;20437;-74
2022/10/18 03:29:17;;;;;;;23.00;13.18;;;17.80;99.90;;;;;;5073553;28;20059;-74
2022/10/18 03:31:43;;;;;;;24.60;14.20;;;17.80;99.90;;;;;;5073003;28;20028;-75
2022/10/18 03:34:08;;;;;;;21.60;14.95;;;17.80;99.90;;;;;;5073191;28;20048;-74
2022/10/18 03:36:34;;;;;;;24.05;14.13;;;17.80;99.90;;;;;;5073279;28;20071;-75
2022/10/18 03:39:00;;;;;;;25.48;12.60;;;17.90;99.90;;;;;;5071709;28;20038;-75
2022/10/18 03:41:26;;;;;;;24.48;12.48;;;17.80;99.90;;;;;;5071702;28;20021;-74
2022/10/18 03:43:53;;;;;;;22.48;15.40;;;17.80;99.90;;;;;;5073497;28;20017;-75
2022/10/18 03:46:18;;;;;;;22.98;15.10;;;17.80;99.90;;;;;;5072570;28;20115;-74
2022/10/18 03:48:44;;;;;;;26.88;15.93;;;17.90;99.90;;;;;;5071634;28;20115;-74
2022/10/18 03:51:10;;;;;;;22.73;15.23;;;17.80;99.90;;;;;;5071606;28;20029;-75
2022/10/18 03:53:36;;;;;;;25.25;15.07;;;17.80;99.90;;;;;;5072452;28;20465;-74
2022/10/18 03:56:01;;;;;;;26.00;16.17;;;17.80;99.90;;;;;;5072938;28;20070;-75
2022/10/18 03:58:27;;;;;;;24.80;15.57;;;17.80;99.90;;;;;;5072644;28;20105;-74
2022/10/18 04:00:53;;;;;;;27.92;16.33;;;17.80;99.90;;;;;;5072240;28;20078;-74
2022/10/18 04:03:20;;;;;;;29.27;16.13;;;17.80;99.90;;;;;;5072178;28;20067;-74
2022/10/18 04:05:46;;;;;;;26.73;15.52;;;17.80;99.90;;;;;;5072063;28;20520;-75
2022/10/18 04:08:13;;;;;;;24.88;15.35;;;17.80;99.90;;;;;;5073061;28;20013;-75
2022/10/18 04:10:39;;;;;;;29.65;17.05;;;17.80;99.90;;;;;;5072068;28;20071;-75
2022/10/18 04:13:05;;;;;;;30.95;17.15;;;17.80;99.90;;;;;;5071974;28;20076;-75
2022/10/18 04:15:31;;;;;;;32.72;19.17;;;17.80;99.90;;;;;;5072005;28;20036;-74
2022/10/18 04:17:57;;;;;;;24.08;15.50;;;17.80;99.90;;;;;;5072207;28;20363;-76
2022/10/18 04:20:24;;;;;;;27.27;14.73;;;17.80;99.90;;;;;;5072303;28;20032;-75
2022/10/18 04:22:51;;;;;;;24.88;14.23;;;17.80;99.90;;;;;;5071957;28;20024;-76
2022/10/18 04:25:17;;;;;;;24.80;13.40;;;17.80;99.90;;;;;;5071254;28;20462;-75
2022/10/18 04:27:43;;;;;;;29.48;15.20;;;17.80;99.90;;;;;;5070570;28;20119;-75
2022/10/18 04:30:09;;;;;;;25.05;15.18;;;17.70;99.90;;;;;;5071635;28;20135;-74
2022/10/18 04:32:35;;;;;;;25.90;15.15;;;17.70;99.90;;;;;;5071504;28;20085;-74
2022/10/18 04:35:04;;;;;;;32.25;16.92;;;17.70;99.90;;;;;;5072010;28;20032;-76
2022/10/18 04:37:30;;;;;;;27.10;15.48;;;17.70;99.90;;;;;;5070583;28;20037;-75
2022/10/18 04:39:56;;;;;;;26.45;16.65;;;17.70;99.90;;;;;;5071441;28;20037;-75
2022/10/18 04:42:22;;;;;;;31.08;17.00;;;17.70;99.90;;;;;;5071558;28;20427;-76
2022/10/18 04:44:48;;;;;;;30.83;17.65;;;17.70;99.90;;;;;;5071410;28;20028;-75
2022/10/18 04:47:14;;;;;;;28.45;16.95;;;17.70;99.90;;;;;;5070927;28;20123;-75
2022/10/18 04:49:40;;;;;;;28.55;16.63;;;17.70;99.90;;;;;;5070602;28;20485;-77
2022/10/18 04:52:06;;;;;;;25.33;16.80;;;17.70;99.90;;;;;;5071604;28;20036;-75
2022/10/18 04:54:31;;;;;;;27.75;17.35;;;17.70;99.90;;;;;;5071097;28;20044;-76
2022/10/18 04:56:57;;;;;;;33.83;17.92;;;17.70;99.90;;;;;;5070084;28;20039;-75
2022/10/18 04:59:23;;;;;;;29.77;17.83;;;17.70;99.90;;;;;;5071493;28;20053;-75
2022/10/18 05:01:48;;;;;;;33.20;17.70;;;17.70;99.90;;;;;;5071112;28;20039;-76
2022/10/18 05:04:14;;;;;;;34.03;17.98;;;17.70;99.90;;;;;;5069874;28;20029;-75
2022/10/18 05:06:40;;;;;;;33.63;17.65;;;17.70;99.90;;;;;;5071270;28;20024;-74
2022/10/18 05:09:05;;;;;;;37.28;17.70;;;17.70;99.90;;;;;;5070151;28;20478;-75
2022/10/18 05:11:31;;;;;;;30.27;17.90;;;17.70;99.90;;;;;;5070430;28;20034;-74
2022/10/18 05:13:56;;;;;;;28.20;16.92;;;17.70;99.90;;;;;;5071496;28;20035;-76
2022/10/18 05:16:22;;;;;;;31.92;17.58;;;17.70;99.90;;;;;;5070590;28;20085;-75
2022/10/18 05:18:48;;;;;;;31.08;19.27;;;17.70;99.90;;;;;;5070691;28;20047;-75
2022/10/18 05:21:14;;;;;;;33.60;19.90;;;17.70;99.90;;;;;;5070812;28;20036;-75
2022/10/18 05:23:39;;;;;;;37.45;20.48;;;17.70;99.90;;;;;;5070778;28;20031;-75
2022/10/18 05:26:06;;;;;;;38.95;20.33;;;17.70;99.90;;;;;;5070209;28;20131;-75
2022/10/18 05:28:33;;;;;;;34.33;19.85;;;17.70;99.90;;;;;;5070696;28;20043;-76
2022/10/18 05:31:03;;;;;;;31.55;18.88;;;17.70;99.90;;;;;;5069616;28;20459;-77
2022/10/18 05:33:29;;;;;;;29.20;18.75;;;17.70;99.90;;;;;;5070802;28;20028;-76
2022/10/18 05:35:55;;;;;;;32.65;19.60;;;17.70;99.90;;;;;;5070880;28;20056;-76
2022/10/18 05:38:21;;;;;;;32.92;19.58;;;17.70;99.90;;;;;;5071113;28;20063;-76
2022/10/18 05:40:47;;;;;;;31.65;19.15;;;17.70;99.90;;;;;;5066259;28;20533;-75
2022/10/18 05:43:13;;;;;;;37.55;20.70;;;17.70;99.90;;;;;;5049690;28;20037;-75
2022/10/18 05:45:38;;;;;;;32.97;20.60;;;17.70;99.90;;;;;;5050600;28;20347;-76
2022/10/18 05:48:06;;;;;;;36.08;19.48;;;17.70;99.90;;;;;;5050757;28;20355;-76
2022/10/18 05:50:32;;;;;;;33.95;20.52;;;17.70;99.90;;;;;;5049171;28;20127;-75
2022/10/18 05:52:58;;;;;;;38.22;21.02;;;17.70;99.90;;;;;;5050736;28;20043;-77
2022/10/18 05:55:23;;;;;;;29.50;19.40;;;17.70;99.90;;;;;;5050814;28;20063;-80
2022/10/18 05:57:50;;;;;;;36.78;20.00;;;17.70;99.90;;;;;;5053127;28;20450;-79
2022/10/18 06:00:18;;;;;;;33.22;19.15;;;17.70;99.90;;;;;;5070538;28;20048;-76
2022/10/18 06:02:44;;;;;;;35.25;20.02;;;17.70;99.90;;;;;;5070707;28;20017;-78
2022/10/18 06:05:10;;;;;;;36.75;21.13;;;17.70;99.90;;;;;;5071179;28;20103;-81
2022/10/18 06:07:35;;;;;;;33.65;19.15;;;17.70;99.90;;;;;;5069656;28;20029;-78
2022/10/18 06:10:01;;;;;;;33.45;19.67;;;17.70;99.90;;;;;;5070775;28;20142;-77
2022/10/18 06:12:27;;;;;;;37.42;19.10;;;17.60;99.90;;;;;;5070429;28;20130;-77
2022/10/18 06:14:52;;;;;;;34.22;19.05;;;17.60;99.90;;;;;;5070702;28;20028;-76
2022/10/18 06:17:18;;;;;;;35.13;20.50;;;17.60;99.90;;;;;;5071257;28;20075;-76
2022/10/18 06:19:44;;;;;;;40.67;20.27;;;17.60;99.90;;;;;;5070402;28;20040;-77
2022/10/18 06:22:10;;;;;;;36.88;21.35;;;17.60;99.90;;;;;;5070480;28;20025;-74
2022/10/18 06:24:36;;;;;;;47.35;22.58;;;17.60;99.90;;;;;;5070346;28;20101;-75
2022/10/18 06:27:07;;;;;;;38.80;22.15;;;17.60;99.90;;;;;;5069161;28;20497;-75
2022/10/18 06:29:36;;;;;;;38.85;23.70;;;17.60;99.90;;;;;;5070528;28;20442;-74
2022/10/18 06:32:03;;;;;;;36.72;22.13;;;17.60;99.90;;;;;;5070687;28;20121;-74
2022/10/18 06:34:29;;;;;;;37.92;21.17;;;17.60;99.90;;;;;;5070712;28;20032;-74
2022/10/18 06:36:54;;;;;;;41.15;21.27;;;17.60;99.90;;;;;;5070122;28;20051;-73
2022/10/18 06:39:20;;;;;;;39.50;22.13;;;17.60;99.90;;;;;;5069143;28;20033;-75
2022/10/18 06:41:46;;;;;;;33.13;20.80;;;17.60;99.90;;;;;;5069322;28;20045;-76
2022/10/18 06:44:14;;;;;;;38.28;22.38;;;17.60;99.90;;;;;;5070266;28;20350;-77
2022/10/18 06:46:44;;;;;;;39.58;22.05;;;17.60;99.90;;;;;;5070752;28;20470;-75
2022/10/18 06:49:11;;;;;;;37.83;20.95;;;17.60;99.90;;;;;;5073628;28;20480;-73
2022/10/18 06:51:37;;;;;;;42.97;22.45;;;17.60;99.90;;;;;;5074468;28;20067;-74
2022/10/18 06:54:03;;;;;;;44.88;23.10;;;17.60;99.90;;;;;;5072876;28;20060;-74
2022/10/18 06:56:28;;;;;;;42.13;22.85;;;17.60;99.90;;;;;;5073667;28;20107;-74
2022/10/18 06:58:54;;;;;;;39.83;23.35;;;17.60;99.90;;;;;;5074194;28;20095;-75
2022/10/18 07:01:20;;;;;;;34.83;21.67;;;17.50;99.90;;;;;;5073705;28;20048;-76
2022/10/18 07:03:48;;;;;;;45.08;22.77;;;17.50;99.90;;;;;;5072517;28;20025;-75
2022/10/18 07:06:16;;;;;;;40.17;23.65;;;17.60;99.90;;;;;;5073473;28;20094;-74
2022/10/18 07:08:42;;;;;;;36.38;22.27;;;17.60;99.90;;;;;;5073558;28;20033;-75
2022/10/18 07:11:14;;;;;;;45.25;24.05;;;17.60;99.90;;;;;;5072762;28;20419;-75
2022/10/18 07:13:39;;;;;;;49.08;23.13;;;17.60;99.90;;;;;;5071834;28;20055;-74
2022/10/18 07:16:07;;;;;;;44.92;23.48;;;17.60;99.90;;;;;;5073449;28;20033;-76
2022/10/18 07:18:41;;;;;;;38.92;23.08;;;17.60;99.90;;;;;;5073435;28;20032;-76
2022/10/18 07:21:09;;;;;;;44.40;23.38;;;17.70;99.90;;;;;;5073291;28;20024;-79
2022/10/18 07:23:35;;;;;;;;;;;17.70;99.90;;;;;;5073675;28;20465;-75
2022/10/18 07:26:09;;;;;;;38.38;21.55;;;17.70;99.90;;;;;;5073518;28;20365;-76
2022/10/18 07:28:35;;;;;;;43.33;23.75;;;17.70;99.90;;;;;;5073023;28;20068;-76
2022/10/18 07:31:04;;;;;;;43.97;23.05;;;17.70;99.90;;;;;;5073102;28;20474;-76
2022/10/18 07:33:30;;;;;;;37.67;22.10;;;17.70;99.90;;;;;;5073321;28;20490;-76
2022/10/18 07:35:59;;;;;;;40.47;22.90;;;17.80;99.90;;;;;;5072102;28;20340;-76
2022/10/18 07:38:25;;;;;;;49.30;25.88;;;17.70;99.90;;;;;;5073818;28;20277;-75
2022/10/18 07:40:57;;;;;;;43.17;25.30;;;17.80;99.90;;;;;;5072860;28;20032;-74
2022/10/18 07:43:23;;;;;;;43.65;25.42;;;17.80;99.90;;;;;;5072866;28;20177;-75
2022/10/18 07:45:56;;;;;;;41.38;24.38;;;17.80;99.90;;;;;;5073032;28;20033;-74
2022/10/18 07:48:22;;;;;;;47.63;24.17;;;17.80;99.90;;;;;;5071809;28;20178;-75
2022/10/18 07:50:48;;;;;;;44.45;23.83;;;17.80;99.90;;;;;;5072695;28;20122;-75
2022/10/18 07:53:14;;;;;;;47.40;24.17;;;17.80;99.90;;;;;;5073215;28;20024;-74
2022/10/18 07:55:40;;;;;;;41.80;23.95;;;17.80;99.90;;;;;;5072775;28;20465;-75
2022/10/18 07:58:06;;;;;;;44.20;24.33;;;17.90;99.90;;;;;;5072992;28;20034;-76
2022/10/18 08:00:32;;;;;;;44.13;24.63;;;17.90;99.90;;;;;;5071665;28;20085;-77
2022/10/18 08:02:58;;;;;;;47.03;25.00;;;17.90;99.90;;;;;;5073069;28;20461;-76
2022/10/18 08:05:28;;;;;;;38.30;23.80;;;18.00;99.90;;;;;;5070500;28;20477;-75
2022/10/18 08:07:54;;;;;;;45.42;24.90;;;18.00;99.90;;;;;;5072870;28;20036;-75
2022/10/18 08:10:21;;;;;;;44.28;24.35;;;18.10;99.90;;;;;;5072903;28;20024;-76
2022/10/18 08:12:47;;;;;;;42.00;23.83;;;18.20;99.90;;;;;;5072759;28;20084;-75
2022/10/18 08:15:12;;;;;;;44.03;24.85;;;18.10;99.90;;;;;;5071874;28;20487;-75
2022/10/18 08:17:38;;;;;;;45.10;24.75;;;18.10;99.90;;;;;;5072669;28;20131;-76
2022/10/18 08:20:04;;;;;;;42.80;24.45;;;18.10;99.90;;;;;;5072843;28;20451;-74
2022/10/18 08:22:31;;;;;;;41.55;23.67;;;18.20;99.90;;;;;;5071736;28;20078;-77
2022/10/18 08:24:57;;;;;;;46.75;24.65;;;18.30;99.90;;;;;;5072700;28;20036;-77
2022/10/18 08:27:25;;;;;;;46.80;25.77;;;18.30;99.90;;;;;;5071851;28;20109;-76
2022/10/18 08:29:50;;;;;;;45.13;23.55;;;18.30;99.90;;;;;;5072468;28;20446;-75
2022/10/18 08:32:16;;;;;;;47.35;24.17;;;18.30;99.90;;;;;;5072991;28;20035;-76
2022/10/18 08:34:42;;;;;;;47.33;23.77;;;18.50;99.90;;;;;;5072053;28;20029;-76
2022/10/18 08:37:08;;;;;;;37.60;20.05;;;18.50;99.90;;;;;;5071989;28;20398;-77
2022/10/18 08:39:33;;;;;;;33.17;19.65;;;18.50;99.90;;;;;;5072335;28;20409;-77
2022/10/18 08:42:38;;;;;;;38.05;19.95;;;18.60;99.90;;;;;;5072093;28;20048;-75
2022/10/18 08:45:05;;;;;;;40.35;17.98;;;18.60;99.90;;;;;;5072284;28;20232;-76
2022/10/18 08:47:38;;;;;;;32.33;17.75;;;18.60;99.90;;;;;;5071831;28;20043;-77
2022/10/18 08:50:11;;;;;;;31.42;18.00;;;18.60;99.90;;;;;;5072095;28;20217;-78
2022/10/18 08:53:04;;;;;;;34.45;18.50;;;18.50;99.90;;;;;;5071788;28;20036;-78
2022/10/18 08:55:47;;;;;;;34.75;18.23;;;18.50;99.90;;;;;;5071398;28;20051;-78
2022/10/18 08:58:20;;;;;;;36.03;19.08;;;18.50;99.90;;;;;;5071206;28;20474;-76
2022/10/18 09:01:27;;;;;;;41.13;19.23;;;18.40;99.90;;;;;;5071199;28;20584;-77
2022/10/18 09:04:14;;;;;;;35.97;17.88;;;18.40;99.90;;;;;;5071234;28;20039;-77
2022/10/18 09:07:01;;;;;;;29.53;18.57;;;18.40;99.90;;;;;;5071242;28;20028;-75
2022/10/18 09:09:53;;;;;;;34.60;18.53;;;18.40;99.90;;;;;;5071046;28;20028;-76
2022/10/18 09:13:00;;;;;;;40.03;19.50;;;18.30;99.90;;;;;;5070607;28;20429;-77
2022/10/18 09:15:37;;;;;;;35.08;19.85;;;18.20;99.90;;;;;;5070856;28;20097;-76
2022/10/18 09:18:21;;;;;;;37.45;18.50;;;18.30;99.90;;;;;;5070716;28;20458;-77
2022/10/18 09:20:57;;;;;;;36.08;19.92;;;18.10;99.90;;;;;;5070876;28;20478;-76
2022/10/18 09:23:42;;;;;;;47.75;20.13;;;18.10;99.90;;;;;;5069912;28;20115;-76
2022/10/18 09:26:26;;;;;;;39.28;20.95;;;18.10;99.90;;;;;;5070944;28;20140;-74
2022/10/18 09:29:12;;;;;;;39.50;19.88;;;18.20;99.90;;;;;;5070606;28;20051;-76
2022/10/18 09:31:59;;;;;;;36.13;19.85;;;18.20;99.90;;;;;;5066600;28;20033;-75
2022/10/18 09:34:44;;;;;;;47.65;21.60;;;18.30;99.90;;;;;;5069820;28;20042;-74
2022/10/18 09:37:16;;;;;;;40.03;20.92;;;18.20;99.90;;;;;;5069860;28;20091;-76
2022/10/18 09:39:42;;;;;;;45.35;21.35;;;18.10;99.90;;;;;;5070856;28;20402;-77
2022/10/18 09:42:27;;;;;;;36.80;19.73;;;18.20;99.90;;;;;;5069928;28;20466;-80
2022/10/18 09:45:21;;;;;;;42.05;20.13;;;18.10;99.90;;;;;;5071085;28;20029;-81
2022/10/18 09:48:00;;;;;;;42.67;18.83;;;18.00;99.90;;;;;;5071176;28;20025;-78
2022/10/18 09:50:43;;;;;;;34.55;17.58;;;18.00;99.90;;;;;;5070510;28;20040;-79
2022/10/18 09:53:25;;;;;;;30.08;16.10;;;18.10;99.90;;;;;;5069942;28;20374;-77
2022/10/18 09:56:05;;;;;;;32.42;16.05;;;18.20;99.90;;;;;;5069990;28;20037;-83
2022/10/18 09:58:45;;;;;;;39.67;16.92;;;18.20;99.90;;;;;;5070916;28;20056;-78
2022/10/18 10:01:27;;;;;;;28.13;16.30;;;18.20;99.90;;;;;;5069487;28;20493;-81
2022/10/18 10:03:53;;;;;;;32.97;16.67;;;18.30;99.90;;;;;;5069876;28;20051;-86
2022/10/18 10:06:28;;;;;;;34.83;17.35;;;18.30;99.90;;;;;;5070114;28;20025;-83
2022/10/18 10:09:06;;;;;;;34.95;16.48;;;18.40;99.90;;;;;;5070726;28;20025;-83
2022/10/18 10:11:39;;;;;;;37.20;15.32;;;18.50;99.90;;;;;;5070732;28;20029;-79
2022/10/18 10:14:22;;;;;;;31.42;16.27;;;18.60;99.90;;;;;;5071290;28;20032;-81
2022/10/18 10:17:21;;;;;;;28.50;14.68;;;18.70;99.90;;;;;;5070711;28;20039;-79
2022/10/18 10:20:34;;;;;;;32.40;14.27;;;18.80;99.90;;;;;;5070662;28;20530;-80
2022/10/18 10:23:18;;;;;;;33.10;15.95;;;18.70;99.90;;;;;;5029661;28;20397;-80
2022/10/18 10:25:52;;;;;;;28.80;14.38;;;18.80;99.90;;;;;;5032095;28;20033;-78
2022/10/18 10:28:22;;;;;;;27.08;13.15;;;18.90;99.90;;;;;;5062464;28;20125;-79
2022/10/18 10:30:48;;;;;;;29.95;13.00;;;19.00;99.90;;;;;;5074712;28;20092;-77
2022/10/18 10:33:37;;;;;;;26.25;13.30;;;19.20;99.90;;;;;;5074354;28;20025;-78
2022/10/18 10:36:14;;;;;;;26.25;11.75;;;19.30;99.90;;;;;;5074286;28;20064;-78
2022/10/18 10:38:40;;;;;;;32.30;12.70;;;19.30;99.90;;;;;;5074490;28;20307;-78
2022/10/18 10:41:18;;;;;;;23.02;10.95;;;19.60;99.90;;;;;;5075019;28;20040;-78
2022/10/18 10:43:44;;;;;;;21.23;11.32;;;20.00;99.90;;;;;;5074487;28;20025;-78
2022/10/18 10:46:20;;;;;;;22.25;11.95;;;20.20;99.90;;;;;;5073090;28;20040;-77
2022/10/18 10:48:51;;;;;;;26.48;10.30;;;20.50;99.90;;;;;;5074363;28;20051;-76
2022/10/18 10:51:29;;;;;;;19.85;9.57;;;21.20;99.90;;;;;;5073974;28;20029;-75
2022/10/18 10:54:10;;;;;;;23.20;9.20;;;22.10;98.10;;;;;;5074207;28;20081;-76
2022/10/18 10:56:55;;;;;;;25.10;8.52;;;22.70;98.30;;;;;;5073733;28;20082;-77
2022/10/18 10:59:23;;;;;;;16.02;8.15;;;23.30;96.40;;;;;;5074102;28;20024;-77
2022/10/18 11:02:17;;;;;;;17.63;7.10;;;24.10;96.00;;;;;;5073600;28;20028;-77
2022/10/18 11:04:46;;;;;;;16.88;7.72;;;24.80;94.10;;;;;;5073367;28;20112;-76
2022/10/18 11:07:20;;;;;;;16.85;7.60;;;24.80;93.40;;;;;;5072389;28;20024;-77
2022/10/18 11:10:10;;;;;;;22.02;9.00;;;24.40;92.90;;;;;;5070316;28;20078;-77
2022/10/18 11:12:40;;;;;;;16.42;7.03;;;24.10;92.10;;;;;;5073795;28;20032;-76
2022/10/18 11:15:10;;;;;;;20.02;8.40;;;24.30;94.40;;;;;;5073946;28;20078;-78
2022/10/18 11:17:41;;;;;;;21.02;9.05;;;24.80;92.70;;;;;;5072440;28;20056;-77
2022/10/18 11:20:18;;;;;;;17.55;7.32;;;25.10;91.80;;;;;;5073930;28;20063;-78
2022/10/18 11:22:55;;;;;;;19.40;7.75;;;25.20;91.60;;;;;;5073501;28;20107;-77
2022/10/18 11:25:25;;;;;;;15.52;6.90;;;24.80;90.90;;;;;;5073836;28;20024;-80
2022/10/18 11:27:57;;;;;;;13.65;6.47;;;25.00;91.50;;;;;;5074379;28;20121;-80
2022/10/18 11:30:42;;;;;;;16.83;6.43;;;25.40;90.70;;;;;;5074262;28;20060;-79
2022/10/18 11:33:26;;;;;;;17.95;5.97;;;25.70;89.20;;;;;;5074373;28;20033;-76
2022/10/18 11:36:09;;;;;;;15.88;5.72;;;25.10;89.30;;;;;;5072979;28;20442;-75
2022/10/18 11:38:43;;;;;;;17.38;6.95;;;24.10;90.50;;;;;;5071551;28;20035;-74
2022/10/18 11:41:12;;;;;;;16.60;6.10;;;24.00;91.90;;;;;;5073251;28;20097;-74
2022/10/18 11:44:22;;;;;;;16.42;6.53;;;24.30;91.30;;;;;;5072887;28;20124;-73
2022/10/18 11:47:12;;;;;;;18.30;6.50;;;23.90;91.60;;;;;;5040020;28;20032;-74
2022/10/18 11:49:55;;;;;;;18.08;6.80;;;23.50;91.90;;;;;;5071415;28;20173;-74
2022/10/18 11:52:33;;;;;;;13.05;6.07;;;23.40;92.10;;;;;;5072265;28;20036;-75
2022/10/18 11:55:05;;;;;;;15.13;5.15;;;23.10;92.30;;;;;;5072608;28;20051;-75
2022/10/18 11:57:33;;;;;;;24.20;5.90;;;22.90;92.90;;;;;;5072681;28;20029;-74
2022/10/18 12:00:21;;;;;;;19.83;5.30;;;22.90;92.90;;;;;;5072309;28;20093;-74
2022/10/18 12:03:21;;;;;;;13.43;4.70;;;23.00;92.80;;;;;;5072455;28;20085;-73
2022/10/18 12:05:50;;;;;;;16.73;4.68;;;22.50;91.60;;;;;;5071197;28;20048;-75
2022/10/18 12:08:34;;;;;;;15.88;5.68;;;22.30;92.10;;;;;;5072684;28;20030;-75
2022/10/18 12:11:08;;;;;;;16.33;5.10;;;21.90;92.20;;;;;;5072591;28;20044;-74
2022/10/18 12:13:45;;;;;;;16.35;4.93;;;22.10;93.10;;;;;;5071690;28;20068;-75
2022/10/18 12:16:11;;;;;;;20.45;5.05;;;22.10;92.50;;;;;;5071867;28;20044;-74
2022/10/18 12:18:53;;;;;;;15.70;4.18;;;21.70;92.70;;;;;;5071962;28;20040;-74
2022/10/18 12:21:24;;;;;;;20.23;4.70;;;21.60;92.70;;;;;;5071728;28;20063;-77
2022/10/18 12:24:07;;;;;;;12.98;3.72;;;21.50;92.70;;;;;;5071586;28;20033;-73
2022/10/18 12:26:34;;;;;;;19.23;4.15;;;21.50;92.70;;;;;;5070256;28;20032;-75
2022/10/18 12:29:24;;;;;;;10.48;3.55;;;21.50;92.40;;;;;;5072492;28;20032;-83
2022/10/18 12:32:00;;;;;;;11.85;3.38;;;21.50;92.30;;;;;;5071245;28;20035;-76
2022/10/18 12:34:42;;;;;;;10.10;3.00;;;21.50;92.20;;;;;;5072621;28;20415;-76
2022/10/18 12:37:19;;;;;;;14.57;3.88;;;21.50;92.40;;;;;;5072268;28;20422;-78
2022/10/18 12:39:45;;;;;;;13.70;4.25;;;21.40;92.30;;;;;;5072563;28;20089;-79
2022/10/18 12:42:42;;;;;;;12.73;3.10;;;21.60;92.10;;;;;;5071124;28;20033;-78
2022/10/18 12:45:32;;;;;;;12.40;2.55;;;21.60;91.80;;;;;;5062443;28;20421;-76
2022/10/18 12:48:00;;;;;;;10.15;3.13;;;21.60;91.90;;;;;;5071526;28;20039;-77
2022/10/18 12:50:34;;;;;;;12.90;3.30;;;21.30;91.00;;;;;;5071997;28;20117;-79
2022/10/18 12:53:08;;;;;;;14.27;2.45;;;21.40;90.80;;;;;;5072993;28;20020;-79